createdAt,value
2023-03-19T00:02:21.429Z,82.21
2023-03-19T00:04:49.427Z,82.64
2023-03-19T00:07:18.009Z,83.02
2023-03-19T00:09:48.170Z,84.74
2023-03-19T00:12:17.248Z,85.14
2023-03-19T00:14:44.937Z,87.17
2023-03-19T00:17:12.566Z,86.65
2023-03-19T00:19:40.846Z,86.86
2023-03-19T00:22:08.613Z,86.31
2023-03-19T00:24:36.336Z,86.07
2023-03-19T00:27:05.532Z,87.33
2023-03-19T00:29:34.584Z,88.16
2023-03-19T00:32:02.332Z,88.21
2023-03-19T00:34:30.015Z,87.73
2023-03-19T00:36:57.632Z,87.55
2023-03-19T00:39:25.261Z,86.50
2023-03-19T00:41:53.551Z,86.71
2023-03-19T00:44:21.415Z,87.23
2023-03-19T00:46:50.660Z,88.35
2023-03-19T00:49:18.280Z,88.03
2023-03-19T00:51:45.879Z,87.14
2023-03-19T00:54:16.851Z,86.82
2023-03-19T00:56:44.505Z,86.76
2023-03-19T00:59:12.216Z,86.31
2023-03-19T01:01:39.968Z,85.82
2023-03-19T01:04:09.340Z,86.92
2023-03-19T01:06:36.930Z,85.65
2023-03-19T01:09:04.668Z,85.62
2023-03-19T01:11:32.285Z,87.77
2023-03-19T01:13:59.975Z,85.86
2023-03-19T01:16:27.592Z,85.27
2023-03-19T01:18:55.417Z,85.72
2023-03-19T01:21:24.303Z,85.31
2023-03-19T01:23:52.688Z,85.75
2023-03-19T01:26:20.744Z,85.32
2023-03-19T01:28:48.274Z,85.82
2023-03-19T01:31:16.422Z,85.04
2023-03-19T01:33:43.922Z,85.86
2023-03-19T01:36:12.286Z,86.29
2023-03-19T01:38:41.128Z,84.73
2023-03-19T01:41:09.517Z,84.77
2023-03-19T01:43:37.473Z,85.58
2023-03-19T01:46:07.321Z,86.42
2023-03-19T01:48:39.419Z,85.92
2023-03-19T01:51:08.273Z,85.01
2023-03-19T01:53:37.301Z,85.69
2023-03-19T01:56:10.396Z,86.29
2023-03-19T01:58:38.695Z,86.63
2023-03-19T02:01:06.550Z,87.64
2023-03-19T02:03:35.263Z,87.74
2023-03-19T02:06:02.798Z,88.08
2023-03-19T02:08:30.791Z,87.75
2023-03-19T02:11:00.193Z,87.47
2023-03-19T02:13:29.331Z,88.11
2023-03-19T02:15:56.952Z,87.16
2023-03-19T02:18:25.441Z,87.33
2023-03-19T02:20:59.934Z,88.12
2023-03-19T02:23:34.551Z,88.20
2023-03-19T02:26:07.803Z,88.00
2023-03-19T02:28:38.838Z,87.98
2023-03-19T02:31:07.311Z,87.81
2023-03-19T02:33:34.916Z,87.41
2023-03-19T02:36:04.100Z,88.99
2023-03-19T02:38:33.771Z,89.76
2023-03-19T02:41:04.409Z,89.14
2023-03-19T02:43:34.291Z,88.84
2023-03-19T02:46:02.029Z,88.34
2023-03-19T02:48:29.659Z,88.75
2023-03-19T02:50:57.111Z,88.90
2023-03-19T02:53:24.611Z,89.19
2023-03-19T02:55:52.088Z,88.29
2023-03-19T02:58:19.579Z,87.79
2023-03-19T03:00:48.502Z,87.94
2023-03-19T03:03:16.198Z,87.65
2023-03-19T03:05:43.650Z,87.04
2023-03-19T03:08:11.115Z,87.20
2023-03-19T03:10:38.857Z,87.56
2023-03-19T03:13:07.048Z,87.16
2023-03-19T03:15:34.533Z,87.99
2023-03-19T03:18:03.380Z,89.53
2023-03-19T03:20:30.893Z,89.63
2023-03-19T03:22:58.565Z,88.94
2023-03-19T03:25:26.046Z,87.98
2023-03-19T03:27:53.500Z,86.63
2023-03-19T03:30:21.064Z,87.05
2023-03-19T03:32:48.697Z,86.99
2023-03-19T03:35:21.869Z,86.64
2023-03-19T03:37:49.937Z,86.53
2023-03-19T03:40:17.527Z,86.93
2023-03-19T03:42:45.346Z,87.07
2023-03-19T03:45:13.084Z,86.95
2023-03-19T03:47:40.868Z,87.42
2023-03-19T03:50:10.785Z,86.72
2023-03-19T03:52:40.882Z,86.91
2023-03-19T03:55:09.878Z,86.75
2023-03-19T03:57:37.703Z,87.00
2023-03-19T04:00:05.942Z,87.10
2023-03-19T04:02:33.512Z,87.62
2023-03-19T04:05:01.039Z,87.47
2023-03-19T04:07:28.562Z,88.32
2023-03-19T04:09:59.279Z,89.02
2023-03-19T04:12:27.127Z,89.07
2023-03-19T04:14:54.598Z,89.07
2023-03-19T04:17:22.336Z,89.45
2023-03-19T04:19:49.821Z,89.98
2023-03-19T04:22:17.292Z,89.89
2023-03-19T04:24:44.763Z,90.48
2023-03-19T04:27:13.623Z,91.43
2023-03-19T04:29:41.243Z,91.25
2023-03-19T04:32:09.015Z,91.75
2023-03-19T04:34:37.291Z,91.87
2023-03-19T04:37:04.821Z,91.62
2023-03-19T04:39:34.755Z,92.43
2023-03-19T04:42:02.222Z,92.39
2023-03-19T04:44:31.535Z,92.30
2023-03-19T04:46:59.081Z,92.49
2023-03-19T04:49:27.409Z,92.66
2023-03-19T04:51:54.918Z,91.95
2023-03-19T04:54:22.435Z,91.74
2023-03-19T04:56:49.945Z,91.44
2023-03-19T04:59:17.565Z,91.20
2023-03-19T05:01:46.428Z,91.13
2023-03-19T05:04:13.948Z,90.95
2023-03-19T05:06:41.706Z,91.17
2023-03-19T05:09:09.208Z,90.72
2023-03-19T05:11:36.833Z,91.02
2023-03-19T05:14:04.843Z,90.74
2023-03-19T05:16:32.941Z,90.76
2023-03-19T05:19:01.719Z,90.93
2023-03-19T05:21:29.203Z,90.81
2023-03-19T05:23:57.182Z,89.96
2023-03-19T05:26:24.933Z,89.85
2023-03-19T05:28:52.400Z,89.86
2023-03-19T05:31:19.964Z,89.79
2023-03-19T05:33:47.482Z,89.92
2023-03-19T05:36:16.856Z,89.80
2023-03-19T05:38:44.417Z,90.33
2023-03-19T05:41:11.868Z,89.10
2023-03-19T05:43:39.517Z,89.06
2023-03-19T05:46:07.021Z,89.12
2023-03-19T05:48:34.657Z,88.67
2023-03-19T05:51:02.109Z,88.61
2023-03-19T05:53:30.956Z,88.66
2023-03-19T05:55:58.517Z,89.15
2023-03-19T05:58:25.994Z,89.15
2023-03-19T06:00:56.088Z,89.32
2023-03-19T06:03:23.593Z,88.71
2023-03-19T06:05:51.241Z,88.65
2023-03-19T06:08:18.859Z,88.70
2023-03-19T06:10:47.701Z,88.92
2023-03-19T06:13:15.148Z,89.25
2023-03-19T06:15:42.673Z,89.25
2023-03-19T06:18:10.198Z,89.09
2023-03-19T06:20:37.751Z,89.05
2023-03-19T06:23:05.531Z,88.59
2023-03-19T06:25:32.998Z,88.35
2023-03-19T06:28:01.816Z,88.77
2023-03-19T06:30:29.345Z,88.35
2023-03-19T06:32:56.840Z,89.00
2023-03-19T06:35:24.485Z,89.27
2023-03-19T06:37:52.280Z,89.70
2023-03-19T06:40:20.001Z,89.24
2023-03-19T06:42:48.112Z,89.06
2023-03-19T06:45:18.860Z,89.31
2023-03-19T06:47:46.949Z,89.75
2023-03-19T06:50:16.313Z,89.07
2023-03-19T06:52:43.848Z,89.58
2023-03-19T06:55:11.661Z,89.20
2023-03-19T06:57:39.233Z,89.17
2023-03-19T07:00:10.347Z,88.50
2023-03-19T07:02:40.011Z,88.06
2023-03-19T07:05:07.971Z,88.16
2023-03-19T07:07:35.722Z,87.90
2023-03-19T07:10:03.802Z,87.72
2023-03-19T07:12:31.513Z,86.58
2023-03-19T07:14:59.060Z,85.51
2023-03-19T07:17:26.863Z,85.72
2023-03-19T07:19:55.812Z,84.44
2023-03-19T07:22:23.612Z,83.90
2023-03-19T07:24:51.492Z,81.79
2023-03-19T07:27:19.151Z,81.77
2023-03-19T07:29:46.816Z,80.33
2023-03-19T07:32:14.888Z,79.75
2023-03-19T07:34:42.516Z,79.33
2023-03-19T07:37:11.581Z,79.51
2023-03-19T07:39:39.244Z,78.59
2023-03-19T07:42:07.108Z,78.97
2023-03-19T07:44:34.752Z,78.09
2023-03-19T07:47:02.306Z,79.96
2023-03-19T07:49:29.897Z,79.67
2023-03-19T07:51:57.467Z,80.16
2023-03-19T07:54:26.587Z,79.41
2023-03-19T07:56:54.285Z,79.82
2023-03-19T07:59:22.058Z,79.10
2023-03-19T08:01:49.651Z,79.73
2023-03-19T08:04:17.522Z,79.32
2023-03-19T08:06:45.107Z,79.48
2023-03-19T08:09:13.268Z,78.17
2023-03-19T08:11:42.135Z,77.98
2023-03-19T08:14:09.811Z,77.04
2023-03-19T08:16:37.411Z,77.01
2023-03-19T08:19:04.930Z,76.80
2023-03-19T08:21:33.640Z,76.13
2023-03-19T08:24:03.139Z,76.79
2023-03-19T08:26:32.841Z,75.94
2023-03-19T08:29:01.793Z,75.92
2023-03-19T08:31:29.351Z,75.06
2023-03-19T08:33:59.955Z,74.87
2023-03-19T08:36:28.080Z,74.27
2023-03-19T08:38:55.832Z,74.60
2023-03-19T08:41:23.834Z,74.90
2023-03-19T08:43:51.305Z,74.04
2023-03-19T08:46:20.834Z,73.14
2023-03-19T08:48:48.359Z,72.59
2023-03-19T08:51:15.918Z,73.01
2023-03-19T08:53:43.429Z,72.23
2023-03-19T08:56:10.911Z,72.00
2023-03-19T08:58:38.393Z,71.91
2023-03-19T09:01:07.700Z,71.23
2023-03-19T09:03:36.804Z,70.53
2023-03-19T09:06:06.065Z,71.18
2023-03-19T09:08:34.109Z,71.50
2023-03-19T09:11:01.606Z,70.94
2023-03-19T09:13:29.125Z,69.66
2023-03-19T09:15:56.762Z,69.63
2023-03-19T09:18:25.436Z,69.30
2023-03-19T09:20:55.147Z,67.86
2023-03-19T09:23:23.112Z,67.33
2023-03-19T09:25:51.005Z,67.90
2023-03-19T09:28:18.968Z,66.68
2023-03-19T09:30:47.577Z,66.37
2023-03-19T09:33:15.902Z,67.46
2023-03-19T09:35:43.549Z,67.08
2023-03-19T09:38:12.386Z,65.75
2023-03-19T09:40:42.859Z,65.59
2023-03-19T09:43:32.968Z,66.45
2023-03-19T09:46:03.011Z,65.91
2023-03-19T09:48:34.772Z,65.26
2023-03-19T09:51:04.310Z,65.02
2023-03-19T09:53:39.175Z,65.42
2023-03-19T09:56:08.492Z,64.80
2023-03-19T09:58:37.216Z,64.89
2023-03-19T10:01:05.990Z,63.44
2023-03-19T10:03:44.729Z,63.98
2023-03-19T10:06:23.421Z,64.02
2023-03-19T10:09:03.065Z,63.68
2023-03-19T10:11:38.156Z,64.28
2023-03-19T10:14:18.185Z,63.76
2023-03-19T10:16:47.831Z,62.03
2023-03-19T10:19:18.232Z,61.34
2023-03-19T10:21:49.996Z,62.67
2023-03-19T10:24:23.032Z,63.68
2023-03-19T10:26:52.061Z,62.82
2023-03-19T10:29:21.849Z,62.83
2023-03-19T10:31:53.547Z,62.15
2023-03-19T10:34:31.114Z,61.71
2023-03-19T10:37:03.750Z,62.47
2023-03-19T10:39:34.140Z,61.95
2023-03-19T10:42:11.228Z,61.30
2023-03-19T10:44:43.761Z,61.92
2023-03-19T10:47:12.762Z,61.93
2023-03-19T10:49:40.637Z,60.62
2023-03-19T10:52:21.709Z,61.82
2023-03-19T10:54:56.431Z,61.81
2023-03-19T10:57:27.382Z,62.94
2023-03-19T10:59:55.292Z,62.58
2023-03-19T11:02:27.196Z,62.38
2023-03-19T11:05:08.553Z,63.08
2023-03-19T11:07:37.195Z,62.62
2023-03-19T11:10:07.559Z,60.78
2023-03-19T11:12:37.312Z,61.55
2023-03-19T11:15:07.419Z,61.07
2023-03-19T11:17:39.228Z,62.11
2023-03-19T11:20:20.697Z,61.75
2023-03-19T11:22:48.410Z,61.45
2023-03-19T11:25:19.765Z,61.24
2023-03-19T11:27:59.067Z,60.41
2023-03-19T11:30:28.643Z,61.59
2023-03-19T11:33:19.204Z,61.78
2023-03-19T11:35:52.636Z,60.49
2023-03-19T11:38:26.350Z,60.57
2023-03-19T11:41:01.990Z,62.22
2023-03-19T11:43:45.446Z,61.16
2023-03-19T11:46:26.252Z,61.52
2023-03-19T11:49:07.994Z,61.00
2023-03-19T11:51:40.006Z,60.03
2023-03-19T11:54:13.681Z,60.17
2023-03-19T11:56:44.602Z,59.46
2023-03-19T11:59:27.237Z,58.46
2023-03-19T12:02:23.816Z,58.17
2023-03-19T12:05:01.554Z,58.26
2023-03-19T12:07:33.918Z,60.47
2023-03-19T12:10:08.474Z,59.83
2023-03-19T12:12:41.388Z,61.99
2023-03-19T12:15:15.599Z,62.98
2023-03-19T12:17:50.722Z,64.47
2023-03-19T12:20:24.155Z,63.39
2023-03-19T12:23:01.339Z,60.92
2023-03-19T12:25:40.352Z,60.85
2023-03-19T12:28:16.155Z,61.47
2023-03-19T12:30:46.473Z,61.38
2023-03-19T12:33:35.320Z,59.31
2023-03-19T12:36:04.682Z,59.00
2023-03-19T12:38:37.281Z,60.28
2023-03-19T12:41:07.697Z,59.48
2023-03-19T12:43:39.972Z,59.53
2023-03-19T12:46:11.326Z,59.68
2023-03-19T12:48:42.821Z,59.76
2023-03-19T12:51:13.775Z,59.44
2023-03-19T12:53:46.199Z,59.31
2023-03-19T12:56:18.554Z,59.47
2023-03-19T12:58:54.472Z,61.20
2023-03-19T13:01:25.698Z,61.35
2023-03-19T13:03:56.596Z,60.32
2023-03-19T13:06:28.126Z,62.38
2023-03-19T13:08:58.945Z,65.17
2023-03-19T13:11:35.832Z,66.68
2023-03-19T13:14:09.468Z,66.60
2023-03-19T13:16:42.184Z,66.53
2023-03-19T13:19:18.268Z,68.55
2023-03-19T13:21:47.218Z,69.34
2023-03-19T13:24:21.085Z,70.92
2023-03-19T13:26:49.344Z,70.88
2023-03-19T13:29:21.387Z,73.03
2023-03-19T13:31:49.427Z,74.20
2023-03-19T13:34:23.172Z,74.15
2023-03-19T13:36:55.039Z,72.48
2023-03-19T13:39:27.329Z,73.04
2023-03-19T13:42:08.046Z,71.23
2023-03-19T13:44:43.239Z,70.87
2023-03-19T13:47:39.399Z,71.73
2023-03-19T13:50:28.580Z,72.44
2023-03-19T13:53:13.615Z,74.47
2023-03-19T13:55:52.279Z,76.01
2023-03-19T13:58:43.252Z,76.73
2023-03-19T14:01:13.951Z,76.96
2023-03-19T14:03:42.428Z,77.35
2023-03-19T14:06:35.821Z,79.59
2023-03-19T14:09:05.111Z,79.42
2023-03-19T14:11:34.477Z,81.37
2023-03-19T14:14:04.346Z,83.34
2023-03-19T14:16:35.438Z,84.25
2023-03-19T14:19:05.148Z,84.23
2023-03-19T14:21:36.095Z,85.38
2023-03-19T14:24:55.217Z,85.84
2023-03-19T14:27:19.725Z,86.04
2023-03-19T14:29:48.264Z,86.58
2023-03-19T14:32:18.899Z,84.20
2023-03-19T14:34:47.505Z,84.98
2023-03-19T14:37:20.769Z,83.31
2023-03-19T14:39:51.491Z,82.51
2023-03-19T14:42:21.469Z,82.50
2023-03-19T14:45:15.822Z,82.93
2023-03-19T14:48:09.866Z,81.45
2023-03-19T14:50:48.811Z,80.39
2023-03-19T14:53:19.253Z,79.90
2023-03-19T14:55:51.031Z,79.68
2023-03-19T14:58:20.266Z,79.68
2023-03-19T15:00:50.594Z,78.94
2023-03-19T15:03:30.758Z,78.21
2023-03-19T15:05:59.405Z,77.98
2023-03-19T15:08:27.610Z,77.98
2023-03-19T15:11:06.988Z,79.24
2023-03-19T15:13:50.883Z,77.62
2023-03-19T15:16:29.609Z,77.79
2023-03-19T15:18:59.155Z,74.77
2023-03-19T15:21:26.644Z,75.25
2023-03-19T15:23:54.194Z,75.60
2023-03-19T15:26:31.464Z,74.52
2023-03-19T15:28:58.927Z,74.67
2023-03-19T15:31:51.004Z,74.32
2023-03-19T15:34:24.349Z,73.02
2023-03-19T15:36:54.466Z,72.05
2023-03-19T15:39:23.362Z,70.96
2023-03-19T15:41:51.673Z,70.74
2023-03-19T15:44:23.034Z,71.04
2023-03-19T15:46:51.058Z,71.85
2023-03-19T15:49:24.204Z,71.71
2023-03-19T15:51:54.106Z,70.42
2023-03-19T15:54:22.007Z,71.18
2023-03-19T15:56:50.462Z,70.30
2023-03-19T15:59:19.499Z,70.54
2023-03-19T16:01:47.234Z,70.32
2023-03-19T16:04:19.694Z,71.37
2023-03-19T16:06:49.638Z,70.49
2023-03-19T16:09:24.633Z,72.64
2023-03-19T16:11:52.611Z,72.22
2023-03-19T16:14:25.594Z,72.04
2023-03-19T16:16:54.338Z,71.11
2023-03-19T16:19:31.015Z,70.46
2023-03-19T16:22:00.190Z,71.40
2023-03-19T16:24:30.931Z,71.33
2023-03-19T16:26:59.127Z,71.37
2023-03-19T16:29:27.600Z,71.49
2023-03-19T16:31:59.586Z,70.40
2023-03-19T16:34:32.460Z,71.00
2023-03-19T16:37:03.149Z,70.79
2023-03-19T16:39:35.068Z,72.12
2023-03-19T16:42:17.696Z,71.79
2023-03-19T16:44:48.170Z,72.73
2023-03-19T16:47:19.209Z,73.52
2023-03-19T16:49:47.334Z,73.77
2023-03-19T16:52:18.394Z,73.49
2023-03-19T16:54:46.398Z,73.67
2023-03-19T16:57:15.304Z,73.09
2023-03-19T16:59:43.211Z,73.23
2023-03-19T17:02:12.139Z,72.91
2023-03-19T17:04:39.904Z,72.41
2023-03-19T17:07:07.815Z,71.96
2023-03-19T17:09:36.791Z,72.94
2023-03-19T17:12:06.527Z,74.92
2023-03-19T17:14:34.540Z,75.22
2023-03-19T17:17:02.676Z,75.02
2023-03-19T17:19:34.585Z,74.32
2023-03-19T17:22:02.658Z,74.00
2023-03-19T17:24:31.814Z,74.57
2023-03-19T17:27:02.222Z,74.29
2023-03-19T17:29:30.428Z,74.23
2023-03-19T17:32:01.440Z,74.59
2023-03-19T17:34:31.780Z,74.87
2023-03-19T17:37:01.134Z,74.93
2023-03-19T17:39:31.308Z,75.67
2023-03-19T17:41:59.049Z,75.36
2023-03-19T17:44:28.050Z,76.04
2023-03-19T17:46:55.848Z,76.18
2023-03-19T17:49:26.101Z,76.84
2023-03-19T17:51:53.604Z,77.61
2023-03-19T17:54:21.281Z,78.21
2023-03-19T17:56:49.162Z,78.06
2023-03-19T17:59:16.620Z,78.22
2023-03-19T18:01:47.121Z,78.41
2023-03-19T18:04:16.480Z,78.25
2023-03-19T18:06:46.306Z,78.11
2023-03-19T18:09:18.895Z,78.34
2023-03-19T18:11:46.662Z,78.63
2023-03-19T18:14:14.174Z,78.59
2023-03-19T18:16:41.910Z,78.91
2023-03-19T18:19:19.591Z,79.15
2023-03-19T18:21:47.137Z,79.35
2023-03-19T18:24:14.625Z,79.22
2023-03-19T18:26:42.131Z,79.82
2023-03-19T18:29:09.988Z,79.91
2023-03-19T18:31:37.731Z,80.61
2023-03-19T18:34:07.637Z,80.75
2023-03-19T18:36:36.662Z,81.65
2023-03-19T18:39:04.656Z,82.46
2023-03-19T18:41:32.476Z,82.62
2023-03-19T18:43:59.934Z,82.49
2023-03-19T18:46:29.960Z,82.94
2023-03-19T18:48:59.529Z,81.89
2023-03-19T18:51:28.581Z,83.48
2023-03-19T18:53:57.477Z,83.11
2023-03-19T18:56:27.312Z,82.60
2023-03-19T18:58:55.228Z,82.89
2023-03-19T19:01:23.481Z,82.69
2023-03-19T19:03:51.406Z,83.78
2023-03-19T19:06:26.334Z,84.21
2023-03-19T19:08:57.609Z,84.00
2023-03-19T19:11:25.137Z,85.25
2023-03-19T19:13:56.428Z,85.97
2023-03-19T19:16:28.182Z,85.66
2023-03-19T19:18:55.696Z,85.69
2023-03-19T19:21:23.193Z,85.16
2023-03-19T19:23:50.758Z,84.48
2023-03-19T19:26:23.348Z,84.58
2023-03-19T19:28:52.011Z,83.91
2023-03-19T19:31:24.676Z,84.80
2023-03-19T19:33:52.591Z,85.24
2023-03-19T19:36:20.966Z,85.71
2023-03-19T19:38:49.179Z,85.37
2023-03-19T19:41:17.972Z,85.73
2023-03-19T19:43:47.554Z,85.68
2023-03-19T19:46:16.506Z,86.38
2023-03-19T19:48:44.049Z,86.47
2023-03-19T19:51:19.253Z,86.57
2023-03-19T19:53:47.069Z,86.38
2023-03-19T19:56:16.657Z,86.30
2023-03-19T19:58:44.766Z,86.26
2023-03-19T20:01:17.625Z,86.92
2023-03-19T20:03:46.170Z,87.73
2023-03-19T20:06:14.383Z,88.24
2023-03-19T20:08:42.332Z,87.98
2023-03-19T20:11:15.304Z,87.55
2023-03-19T20:13:44.253Z,88.02
2023-03-19T20:16:12.663Z,88.43
2023-03-19T20:18:43.522Z,88.50
2023-03-19T20:21:12.339Z,87.90
2023-03-19T20:23:41.273Z,87.67
2023-03-19T20:26:12.410Z,86.87
2023-03-19T20:28:39.932Z,86.33
2023-03-19T20:31:07.564Z,86.79
2023-03-19T20:33:37.253Z,87.46
2023-03-19T20:36:07.229Z,88.47
2023-03-19T20:38:36.607Z,87.97
2023-03-19T20:41:04.498Z,88.52
2023-03-19T20:43:33.511Z,88.09
2023-03-19T20:46:04.150Z,87.62
2023-03-19T20:48:32.818Z,88.54
2023-03-19T20:51:01.873Z,89.60
2023-03-19T20:53:31.033Z,89.89
2023-03-19T20:55:59.970Z,90.36
2023-03-19T20:58:29.600Z,89.81
2023-03-19T21:00:57.772Z,88.32
2023-03-19T21:03:27.049Z,89.20
2023-03-19T21:05:57.991Z,89.03
2023-03-19T21:08:33.285Z,90.11
2023-03-19T21:11:01.637Z,90.12
2023-03-19T21:13:29.384Z,89.74
2023-03-19T21:15:57.037Z,89.69
2023-03-19T21:18:24.637Z,91.84
2023-03-19T21:20:54.853Z,91.13
2023-03-19T21:23:26.797Z,91.09
2023-03-19T21:25:55.787Z,90.81
2023-03-19T21:28:25.313Z,90.61
2023-03-19T21:30:53.237Z,90.28
2023-03-19T21:33:24.349Z,89.48
2023-03-19T21:35:52.531Z,90.08
2023-03-19T21:38:20.300Z,90.08
2023-03-19T21:40:47.856Z,89.82
2023-03-19T21:43:20.796Z,90.48
2023-03-19T21:45:49.458Z,90.08
2023-03-19T21:48:24.341Z,90.98
2023-03-19T21:50:52.426Z,90.77
2023-03-19T21:53:20.350Z,90.13
2023-03-19T21:55:48.085Z,90.63
2023-03-19T21:58:19.144Z,90.66
2023-03-19T22:00:47.167Z,90.58
2023-03-19T22:03:18.255Z,90.16
2023-03-19T22:05:46.576Z,90.85
2023-03-19T22:08:16.075Z,91.08
2023-03-19T22:10:44.534Z,91.45
2023-03-19T22:13:21.495Z,92.15
2023-03-19T22:15:49.639Z,92.25
2023-03-19T22:18:17.520Z,93.24
2023-03-19T22:20:45.101Z,92.76
2023-03-19T22:23:13.577Z,93.41
2023-03-19T22:25:43.027Z,92.95
2023-03-19T22:28:16.807Z,93.03
2023-03-19T22:30:46.166Z,92.46
2023-03-19T22:33:15.941Z,92.28
2023-03-19T22:35:43.786Z,92.29
2023-03-19T22:38:11.698Z,91.75
2023-03-19T22:40:40.016Z,92.64
2023-03-19T22:43:17.264Z,91.58
2023-03-19T22:45:46.244Z,92.09
2023-03-19T22:48:15.441Z,92.16
2023-03-19T22:50:43.787Z,92.03
2023-03-19T22:53:22.220Z,92.75
2023-03-19T22:55:49.858Z,92.79
2023-03-19T22:58:17.816Z,91.92
2023-03-19T23:00:47.090Z,92.51
2023-03-19T23:03:18.703Z,90.78
2023-03-19T23:05:47.093Z,91.43
2023-03-19T23:08:17.368Z,90.41
2023-03-19T23:10:44.962Z,90.80
2023-03-19T23:13:13.756Z,90.34
2023-03-19T23:15:41.833Z,90.78
2023-03-19T23:18:17.282Z,90.59
2023-03-19T23:20:44.877Z,90.15
2023-03-19T23:23:13.543Z,90.14
2023-03-19T23:25:41.411Z,89.99
2023-03-19T23:28:17.147Z,89.77
2023-03-19T23:30:46.211Z,90.29
2023-03-19T23:33:15.722Z,89.77
2023-03-19T23:35:43.716Z,90.03
2023-03-19T23:38:12.583Z,89.61
2023-03-19T23:40:43.882Z,90.05
2023-03-19T23:43:18.250Z,90.38
2023-03-19T23:45:46.673Z,91.16
2023-03-19T23:48:17.098Z,91.35
2023-03-19T23:50:48.446Z,92.86
2023-03-19T23:53:19.583Z,93.33
2023-03-19T23:55:48.257Z,92.16
2023-03-19T23:58:16.414Z,93.15
